METAR Data
IDs: Format: Raw Decoded Include TAF

Data at: 1433 UTC 27 Nov 2021

UKHH 271430Z 14005MPS 4100 BR OVC002 04/03 Q1004 BECMG 1100